Airfield :
LOGIN :

Register | Disclaimer

   EN    FR    IT 

 










Legend :    VFR   Marginal VFR   IFR   Intensive IFR   Very Intensive IFR
Visi :
Ceiling :
>= 8 km
>= 3000ft
5 to 8 km
1000 to 3000 ft
1500m to 5 km
500 to 1000 ft
800 to 1500m
200 to 500 ft
< 800m
< 200 ft
Symbols :   Thunderstorms  Fog  Heavy snow  Heavy precipitations  Wind > 20 kt
SIGMETs :     Misc.  Thunderstorms  Icing  Turbulence  Mountain Waves  Volcanic Ashes







- Airport Elevation : 100 ft


EBDT - Schaffen

CURRENT METAR :
  • 270825Z 07005KT 9999 FEW030 SCT055 BKN110 17/11 Q1009 BLU BLU

EXPIRED METARs :
  • 270755Z 07004KT 9999 -RA FEW040 BKN100 16/11 Q1010 BLU BLU
  • 270725Z 07004KT 9999 -RA FEW045 BKN120 16/10 Q1010 BLU BLU
  • 270655Z 07003KT 9999 SCT120 BKN140 16/10 Q1010 BLU BLU
  • 270625Z 07004KT 9999 FEW045 BKN150 15/10 Q1010 BLU BLU
  • 270555Z 06004KT 9999 FEW045 SCT110 BKN170 15/09 Q1010 BLU BLU

TAF TAF EBDT
Valid from the 27 at 07:00 until the 27 at 16:00 UTC


270541Z 2707/2716 06006KT 9999 FEW040 SCT100 BKN220
BECMG 2711/2713 10007KT
No reported NOTAMs for that airfield.



MET'MAP, your aeronautical weather chart ! - Copyright ORBIFLY December 2007 - Disclaimer

ORBIFLY MET'MAP TEAM :

Programming & Development : Alexandra Zaïnal
Concept & Development : Baudouin d'Aumeries
Co-Development & Prog : Marc-Olivier Méhu
Technical & hardware support : Manuel Goepfert

Contact : metmap@orbifly.com




SOURCES & CREDITS :

   NOAA